sensor_id;sensor_type;location;lat;lon;timestamp;pressure;altitude;pressure_sealevel;temperature;humidity
24306;BME280;12423;48.768;8.850;2023-02-15T00:01:47;98230.16;;;-0.28;100.00
24306;BME280;12423;48.768;8.850;2023-02-15T00:03:49;98226.56;;;-0.24;100.00
24306;BME280;12423;48.768;8.850;2023-02-15T00:05:50;98219.59;;;-0.25;100.00
24306;BME280;12423;48.768;8.850;2023-02-15T00:07:51;98227.53;;;-0.28;100.00
24306;BME280;12423;48.768;8.850;2023-02-15T00:09:52;98220.75;;;-0.38;100.00
24306;BME280;12423;48.768;8.850;2023-02-15T00:11:53;98232.94;;;-0.34;100.00
24306;BME280;12423;48.768;8.850;2023-02-15T00:13:54;98219.28;;;-0.50;100.00
24306;BME280;12423;48.768;8.850;2023-02-15T00:16:00;98219.72;;;-0.70;100.00
24306;BME280;12423;48.768;8.850;2023-02-15T00:18:01;98218.44;;;-0.50;100.00
24306;BME280;12423;48.768;8.850;2023-02-15T00:20:02;98223.59;;;-0.46;100.00
24306;BME280;12423;48.768;8.850;2023-02-15T00:22:04;98218.28;;;-0.44;100.00
24306;BME280;12423;48.768;8.850;2023-02-15T00:24:06;98211.25;;;-0.42;100.00
24306;BME280;12423;48.768;8.850;2023-02-15T00:26:12;98205.22;;;-0.47;100.00
24306;BME280;12423;48.768;8.850;2023-02-15T00:28:15;98205.31;;;-0.50;100.00
24306;BME280;12423;48.768;8.850;2023-02-15T00:30:16;98208.75;;;-0.48;100.00
24306;BME280;12423;48.768;8.850;2023-02-15T00:32:17;98207.03;;;-0.49;100.00
24306;BME280;12423;48.768;8.850;2023-02-15T00:34:20;98207.06;;;-0.51;100.00
24306;BME280;12423;48.768;8.850;2023-02-15T00:36:21;98220.06;;;-0.46;100.00
24306;BME280;12423;48.768;8.850;2023-02-15T00:38:23;98211.88;;;-0.32;100.00
24306;BME280;12423;48.768;8.850;2023-02-15T00:40:24;98213.44;;;-0.24;100.00
24306;BME280;12423;48.768;8.850;2023-02-15T00:42:25;98213.56;;;-0.30;100.00
24306;BME280;12423;48.768;8.850;2023-02-15T00:44:26;98212.13;;;-0.43;100.00
24306;BME280;12423;48.768;8.850;2023-02-15T00:46:31;98215.97;;;-0.58;100.00
24306;BME280;12423;48.768;8.850;2023-02-15T00:48:32;98213.09;;;-0.47;100.00
24306;BME280;12423;48.768;8.850;2023-02-15T00:50:33;98213.19;;;-0.50;100.00
24306;BME280;12423;48.768;8.850;2023-02-15T00:52:35;98219.31;;;-0.51;100.00
24306;BME280;12423;48.768;8.850;2023-02-15T00:54:37;98212.31;;;-0.51;100.00
24306;BME280;12423;48.768;8.850;2023-02-15T00:56:39;98207.81;;;-0.46;100.00
24306;BME280;12423;48.768;8.850;2023-02-15T00:58:40;98204.19;;;-0.40;100.00
24306;BME280;12423;48.768;8.850;2023-02-15T01:00:46;98210.25;;;-0.38;100.00
24306;BME280;12423;48.768;8.850;2023-02-15T01:02:47;98210.34;;;-0.41;100.00
24306;BME280;12423;48.768;8.850;2023-02-15T01:04:49;98204.31;;;-0.46;100.00
24306;BME280;12423;48.768;8.850;2023-02-15T01:06:50;98199.97;;;-0.47;100.00
24306;BME280;12423;48.768;8.850;2023-02-15T01:08:51;98199.03;;;-0.45;100.00
24306;BME280;12423;48.768;8.850;2023-02-15T01:10:53;98206.19;;;-0.51;100.00
24306;BME280;12423;48.768;8.850;2023-02-15T01:12:54;98198.28;;;-0.50;100.00
24306;BME280;12423;48.768;8.850;2023-02-15T01:14:56;98207.84;;;-0.47;100.00
24306;BME280;12423;48.768;8.850;2023-02-15T01:16:57;98202.69;;;-0.50;100.00
24306;BME280;12423;48.768;8.850;2023-02-15T01:18:58;98204.50;;;-0.54;100.00
24306;BME280;12423;48.768;8.850;2023-02-15T01:20:59;98209.00;;;-0.59;100.00
24306;BME280;12423;48.768;8.850;2023-02-15T01:23:00;98207.31;;;-0.62;100.00
24306;BME280;12423;48.768;8.850;2023-02-15T01:25:01;98201.28;;;-0.67;100.00
24306;BME280;12423;48.768;8.850;2023-02-15T01:27:03;98207.38;;;-0.65;100.00
24306;BME280;12423;48.768;8.850;2023-02-15T01:29:04;98204.75;;;-0.65;100.00
24306;BME280;12423;48.768;8.850;2023-02-15T01:31:08;98209.22;;;-0.70;100.00
24306;BME280;12423;48.768;8.850;2023-02-15T01:33:10;98218.03;;;-0.71;100.00
24306;BME280;12423;48.768;8.850;2023-02-15T01:35:19;98203.19;;;-0.73;100.00
24306;BME280;12423;48.768;8.850;2023-02-15T01:37:21;98209.22;;;-0.70;100.00
24306;BME280;12423;48.768;8.850;2023-02-15T01:39:22;98203.88;;;-0.65;100.00
24306;BME280;12423;48.768;8.850;2023-02-15T01:41:24;98211.81;;;-0.68;100.00
24306;BME280;12423;48.768;8.850;2023-02-15T01:43:46;98213.69;;;-0.73;100.00
24306;BME280;12423;48.768;8.850;2023-02-15T01:45:49;98202.34;;;-0.74;100.00
24306;BME280;12423;48.768;8.850;2023-02-15T01:48:01;98200.69;;;-0.80;100.00
24306;BME280;12423;48.768;8.850;2023-02-15T01:52:16;98199.25;;;-0.93;100.00
24306;BME280;12423;48.768;8.850;2023-02-15T01:54:44;98197.50;;;-0.94;100.00
24306;BME280;12423;48.768;8.850;2023-02-15T01:56:47;98203.44;;;-0.86;100.00
24306;BME280;12423;48.768;8.850;2023-02-15T01:58:53;98195.63;;;-0.87;100.00
24306;BME280;12423;48.768;8.850;2023-02-15T02:00:57;98188.59;;;-0.85;100.00
24306;BME280;12423;48.768;8.850;2023-02-15T02:02:59;98193.06;;;-0.90;100.00
24306;BME280;12423;48.768;8.850;2023-02-15T02:05:03;98187.25;;;-1.05;100.00
24306;BME280;12423;48.768;8.850;2023-02-15T02:07:07;98183.81;;;-1.07;100.00
24306;BME280;12423;48.768;8.850;2023-02-15T02:09:10;98191.72;;;-1.08;100.00
24306;BME280;12423;48.768;8.850;2023-02-15T02:11:12;98194.25;;;-1.04;100.00
24306;BME280;12423;48.768;8.850;2023-02-15T02:13:14;98185.44;;;-1.03;100.00
24306;BME280;12423;48.768;8.850;2023-02-15T02:15:15;98189.00;;;-1.04;100.00
24306;BME280;12423;48.768;8.850;2023-02-15T02:26:49;98176.75;;;-1.05;100.00
24306;BME280;12423;48.768;8.850;2023-02-15T02:37:51;98182.34;;;-1.20;100.00
24306;BME280;12423;48.768;8.850;2023-02-15T02:40:20;98184.03;;;-1.19;100.00
24306;BME280;12423;48.768;8.850;2023-02-15T02:44:43;98180.59;;;-1.21;100.00
24306;BME280;12423;48.768;8.850;2023-02-15T02:46:54;98176.16;;;-1.18;100.00
24306;BME280;12423;48.768;8.850;2023-02-15T02:48:59;98177.91;;;-1.18;100.00
24306;BME280;12423;48.768;8.850;2023-02-15T02:51:00;98176.25;;;-1.22;100.00
24306;BME280;12423;48.768;8.850;2023-02-15T02:53:01;98179.91;;;-1.31;100.00
24306;BME280;12423;48.768;8.850;2023-02-15T02:57:16;98165.03;;;-1.29;100.00
24306;BME280;12423;48.768;8.850;2023-02-15T02:59:28;98165.06;;;-1.32;100.00
24306;BME280;12423;48.768;8.850;2023-02-15T03:01:38;98166.84;;;-1.33;100.00
24306;BME280;12423;48.768;8.850;2023-02-15T03:03:47;98170.44;;;-1.37;100.00
24306;BME280;12423;48.768;8.850;2023-02-15T03:05:53;98171.34;;;-1.39;100.00
24306;BME280;12423;48.768;8.850;2023-02-15T03:07:56;98166.28;;;-1.49;100.00
24306;BME280;12423;48.768;8.850;2023-02-15T03:10:07;98157.56;;;-1.49;100.00
24306;BME280;12423;48.768;8.850;2023-02-15T03:12:13;98155.00;;;-1.52;100.00
24306;BME280;12423;48.768;8.850;2023-02-15T03:14:24;98159.31;;;-1.48;100.00
24306;BME280;12423;48.768;8.850;2023-02-15T03:16:25;98153.38;;;-1.58;100.00
24306;BME280;12423;48.768;8.850;2023-02-15T03:18:31;98158.63;;;-1.58;100.00
24306;BME280;12423;48.768;8.850;2023-02-15T03:20:36;98162.03;;;-1.54;100.00
24306;BME280;12423;48.768;8.850;2023-02-15T03:22:42;98155.00;;;-1.52;100.00
24306;BME280;12423;48.768;8.850;2023-02-15T03:26:53;98154.44;;;-1.67;100.00
24306;BME280;12423;48.768;8.850;2023-02-15T03:28:57;98151.78;;;-1.65;100.00
24306;BME280;12423;48.768;8.850;2023-02-15T03:31:02;98152.56;;;-1.61;100.00
24306;BME280;12423;48.768;8.850;2023-02-15T03:33:04;98146.56;;;-1.67;100.00
24306;BME280;12423;48.768;8.850;2023-02-15T03:35:07;98155.41;;;-1.74;100.00
24306;BME280;12423;48.768;8.850;2023-02-15T03:37:24;98157.16;;;-1.73;100.00
24306;BME280;12423;48.768;8.850;2023-02-15T03:39:42;98160.56;;;-1.69;100.00
24306;BME280;12423;48.768;8.850;2023-02-15T03:41:51;98163.13;;;-1.66;100.00
24306;BME280;12423;48.768;8.850;2023-02-15T03:43:59;98170.16;;;-1.67;100.00
24306;BME280;12423;48.768;8.850;2023-02-15T03:46:32;98162.41;;;-1.73;100.00
24306;BME280;12423;48.768;8.850;2023-02-15T03:48:42;98163.25;;;-1.72;100.00
24306;BME280;12423;48.768;8.850;2023-02-15T03:50:44;98163.28;;;-1.74;100.00
24306;BME280;12423;48.768;8.850;2023-02-15T03:53:06;98153.72;;;-1.76;100.00
24306;BME280;12423;48.768;8.850;2023-02-15T03:55:08;98158.94;;;-1.75;100.00
24306;BME280;12423;48.768;8.850;2023-02-15T03:57:19;98151.09;;;-1.75;100.00
24306;BME280;12423;48.768;8.850;2023-02-15T03:59:39;98146.00;;;-1.84;100.00
24306;BME280;12423;48.768;8.850;2023-02-15T04:02:14;98146.13;;;-1.90;100.00
24306;BME280;12423;48.768;8.850;2023-02-15T04:04:19;98148.63;;;-1.84;100.00
24306;BME280;12423;48.768;8.850;2023-02-15T04:06:21;98148.69;;;-1.87;100.00
24306;BME280;12423;48.768;8.850;2023-02-15T04:08:22;98146.00;;;-1.84;100.00
24306;BME280;12423;48.768;8.850;2023-02-15T04:10:43;98144.44;;;-1.93;100.00
24306;BME280;12423;48.768;8.850;2023-02-15T04:12:53;98139.34;;;-2.02;100.00
24306;BME280;12423;48.768;8.850;2023-02-15T04:14:54;98137.75;;;-2.09;100.00
24306;BME280;12423;48.768;8.850;2023-02-15T04:17:13;98137.63;;;-2.03;100.00
24306;BME280;12423;48.768;8.850;2023-02-15T04:19:14;98145.53;;;-2.05;100.00
24306;BME280;12423;48.768;8.850;2023-02-15T04:21:34;98140.38;;;-2.11;100.00
24306;BME280;12423;48.768;8.850;2023-02-15T04:23:53;98142.03;;;-2.05;100.00
24306;BME280;12423;48.768;8.850;2023-02-15T04:26:13;98140.28;;;-2.05;100.00
24306;BME280;12423;48.768;8.850;2023-02-15T04:28:14;98136.97;;;-2.14;100.00
24306;BME280;12423;48.768;8.850;2023-02-15T04:30:17;98139.59;;;-2.14;100.00
24306;BME280;12423;48.768;8.850;2023-02-15T04:32:18;98136.94;;;-2.13;100.00
24306;BME280;12423;48.768;8.850;2023-02-15T04:34:19;98142.09;;;-2.10;100.00
24306;BME280;12423;48.768;8.850;2023-02-15T04:36:20;98136.94;;;-2.13;100.00
24306;BME280;12423;48.768;8.850;2023-02-15T04:38:22;98137.78;;;-2.11;100.00
24306;BME280;12423;48.768;8.850;2023-02-15T04:40:23;98139.44;;;-2.08;100.00
24306;BME280;12423;48.768;8.850;2023-02-15T04:42:25;98131.63;;;-2.10;100.00
24306;BME280;12423;48.768;8.850;2023-02-15T04:44:26;98139.47;;;-2.10;100.00
24306;BME280;12423;48.768;8.850;2023-02-15T04:46:27;98136.09;;;-2.16;100.00
24306;BME280;12423;48.768;8.850;2023-02-15T04:48:28;98132.63;;;-2.17;100.00
24306;BME280;12423;48.768;8.850;2023-02-15T04:50:29;98146.59;;;-2.18;100.00
24306;BME280;12423;48.768;8.850;2023-02-15T04:52:30;98134.38;;;-2.16;100.00
24306;BME280;12423;48.768;8.850;2023-02-15T04:54:31;98131.81;;;-2.19;100.00
24306;BME280;12423;48.768;8.850;2023-02-15T04:56:32;98139.63;;;-2.17;100.00
24306;BME280;12423;48.768;8.850;2023-02-15T04:58:35;98135.31;;;-2.20;100.00
24306;BME280;12423;48.768;8.850;2023-02-15T05:00:37;98127.44;;;-2.20;100.00
24306;BME280;12423;48.768;8.850;2023-02-15T05:02:38;98124.78;;;-2.17;100.00
24306;BME280;12423;48.768;8.850;2023-02-15T05:04:39;98122.22;;;-2.22;100.00
24306;BME280;12423;48.768;8.850;2023-02-15T05:06:40;98123.13;;;-2.21;100.00
24306;BME280;12423;48.768;8.850;2023-02-15T05:08:41;98116.19;;;-2.25;100.00
24306;BME280;12423;48.768;8.850;2023-02-15T05:10:42;98118.00;;;-2.29;100.00
24306;BME280;12423;48.768;8.850;2023-02-15T05:12:43;98116.19;;;-2.25;100.00
24306;BME280;12423;48.768;8.850;2023-02-15T05:14:44;98111.94;;;-2.31;100.00
24306;BME280;12423;48.768;8.850;2023-02-15T05:16:45;98106.81;;;-2.37;100.00
24306;BME280;12423;48.768;8.850;2023-02-15T05:18:46;98111.06;;;-2.31;100.00
24306;BME280;12423;48.768;8.850;2023-02-15T05:20:47;98120.69;;;-2.33;100.00
24306;BME280;12423;48.768;8.850;2023-02-15T05:22:48;98107.63;;;-2.33;100.00
24306;BME280;12423;48.768;8.850;2023-02-15T05:24:53;98119.81;;;-2.31;100.00
24306;BME280;12423;48.768;8.850;2023-02-15T05:27:13;98118.09;;;-2.33;100.00
24306;BME280;12423;48.768;8.850;2023-02-15T05:29:32;98121.53;;;-2.31;100.00
24306;BME280;12423;48.768;8.850;2023-02-15T05:31:34;98128.47;;;-2.27;100.00
24306;BME280;12423;48.768;8.850;2023-02-15T05:33:36;98126.75;;;-2.31;100.00
24306;BME280;12423;48.768;8.850;2023-02-15T05:35:37;98127.78;;;-2.40;100.00
24306;BME280;12423;48.768;8.850;2023-02-15T05:37:38;98130.44;;;-2.42;100.00
24306;BME280;12423;48.768;8.850;2023-02-15T05:39:39;98125.19;;;-2.42;100.00
24306;BME280;12423;48.768;8.850;2023-02-15T05:41:40;98129.59;;;-2.44;100.00
24306;BME280;12423;48.768;8.850;2023-02-15T05:43:41;98125.28;;;-2.48;100.00
24306;BME280;12423;48.768;8.850;2023-02-15T05:45:49;98134.91;;;-2.48;100.00
24306;BME280;12423;48.768;8.850;2023-02-15T05:47:51;98128.69;;;-2.43;100.00
24306;BME280;12423;48.768;8.850;2023-02-15T05:49:52;98129.69;;;-2.48;100.00
24306;BME280;12423;48.768;8.850;2023-02-15T05:51:53;98131.38;;;-2.46;100.00
24306;BME280;12423;48.768;8.850;2023-02-15T05:53:54;98127.03;;;-2.47;100.00
24306;BME280;12423;48.768;8.850;2023-02-15T05:55:55;98134.09;;;-2.52;100.00
24306;BME280;12423;48.768;8.850;2023-02-15T05:57:59;98136.03;;;-2.65;100.00
24306;BME280;12423;48.768;8.850;2023-02-15T06:00:02;98137.75;;;-2.62;100.00
24306;BME280;12423;48.768;8.850;2023-02-15T06:02:12;98139.38;;;-2.55;100.00
24306;BME280;12423;48.768;8.850;2023-02-15T06:04:13;98138.47;;;-2.52;100.00
24306;BME280;12423;48.768;8.850;2023-02-15T06:06:15;98137.53;;;-2.50;100.00
24306;BME280;12423;48.768;8.850;2023-02-15T06:08:16;98142.81;;;-2.53;100.00
24306;BME280;12423;48.768;8.850;2023-02-15T06:10:17;98142.81;;;-2.51;100.00
24306;BME280;12423;48.768;8.850;2023-02-15T06:12:18;98142.75;;;-2.48;100.00
24306;BME280;12423;48.768;8.850;2023-02-15T06:14:19;98144.53;;;-2.49;100.00
24306;BME280;12423;48.768;8.850;2023-02-15T06:16:20;98145.47;;;-2.54;100.00
24306;BME280;12423;48.768;8.850;2023-02-15T06:18:22;98152.47;;;-2.56;100.00
24306;BME280;12423;48.768;8.850;2023-02-15T06:20:23;98146.44;;;-2.60;100.00
24306;BME280;12423;48.768;8.850;2023-02-15T06:22:24;98145.47;;;-2.54;100.00
24306;BME280;12423;48.768;8.850;2023-02-15T06:24:25;98145.59;;;-2.61;100.00
24306;BME280;12423;48.768;8.850;2023-02-15T06:26:26;98144.75;;;-2.64;100.00
24306;BME280;12423;48.768;8.850;2023-02-15T06:28:26;98145.59;;;-2.61;100.00
24306;BME280;12423;48.768;8.850;2023-02-15T06:30:27;98146.44;;;-2.60;100.00
24306;BME280;12423;48.768;8.850;2023-02-15T06:32:28;98147.28;;;-2.58;100.00
24306;BME280;12423;48.768;8.850;2023-02-15T06:34:29;98158.59;;;-2.57;100.00
24306;BME280;12423;48.768;8.850;2023-02-15T06:36:31;98158.56;;;-2.56;100.00
24306;BME280;12423;48.768;8.850;2023-02-15T06:38:32;98160.34;;;-2.58;100.00
24306;BME280;12423;48.768;8.850;2023-02-15T06:40:33;98161.94;;;-2.48;100.00
24306;BME280;12423;48.768;8.850;2023-02-15T06:42:34;98168.91;;;-2.47;100.00
24306;BME280;12423;48.768;8.850;2023-02-15T06:44:35;98171.47;;;-2.44;100.00
24306;BME280;12423;48.768;8.850;2023-02-15T06:46:36;98158.34;;;-2.41;100.00
24306;BME280;12423;48.768;8.850;2023-02-15T06:48:37;98167.03;;;-2.38;100.00
24306;BME280;12423;48.768;8.850;2023-02-15T06:50:38;98165.22;;;-2.35;100.00
24306;BME280;12423;48.768;8.850;2023-02-15T06:52:39;98167.00;;;-2.37;100.00
24306;BME280;12423;48.768;8.850;2023-02-15T06:54:40;98168.66;;;-2.31;100.00
24306;BME280;12423;48.768;8.850;2023-02-15T06:56:41;98166.94;;;-2.32;100.00
24306;BME280;12423;48.768;8.850;2023-02-15T06:58:44;98167.78;;;-2.32;100.00
24306;BME280;12423;48.768;8.850;2023-02-15T07:00:46;98163.34;;;-2.27;100.00
24306;BME280;12423;48.768;8.850;2023-02-15T07:02:47;98168.56;;;-2.27;100.00
24306;BME280;12423;48.768;8.850;2023-02-15T07:04:48;98167.66;;;-2.23;100.00
24306;BME280;12423;48.768;8.850;2023-02-15T07:06:49;98166.66;;;-2.17;100.00
24306;BME280;12423;48.768;8.850;2023-02-15T07:08:50;98170.97;;;-2.13;100.00
24306;BME280;12423;48.768;8.850;2023-02-15T07:10:52;98170.00;;;-2.07;100.00
24306;BME280;12423;48.768;8.850;2023-02-15T07:12:53;98168.38;;;-2.13;100.00
24306;BME280;12423;48.768;8.850;2023-02-15T07:14:54;98168.47;;;-2.20;100.00
24306;BME280;12423;48.768;8.850;2023-02-15T07:16:55;98161.56;;;-2.25;100.00
24306;BME280;12423;48.768;8.850;2023-02-15T07:18:56;98164.94;;;-2.18;100.00
24306;BME280;12423;48.768;8.850;2023-02-15T07:20:57;98164.94;;;-2.18;100.00
24306;BME280;12423;48.768;8.850;2023-02-15T07:22:58;98164.00;;;-2.14;100.00
24306;BME280;12423;48.768;8.850;2023-02-15T07:24:59;98163.97;;;-2.12;100.00
24306;BME280;12423;48.768;8.850;2023-02-15T07:27:00;98157.72;;;-2.04;100.00
24306;BME280;12423;48.768;8.850;2023-02-15T07:29:01;98168.03;;;-1.94;100.00
24306;BME280;12423;48.768;8.850;2023-02-15T07:31:03;98169.94;;;-2.04;100.00
24306;BME280;12423;48.768;8.850;2023-02-15T07:33:04;98167.22;;;-1.98;100.00
24306;BME280;12423;48.768;8.850;2023-02-15T07:35:24;98162.66;;;-1.88;100.00
24306;BME280;12423;48.768;8.850;2023-02-15T07:37:25;98166.13;;;-1.86;100.00
24306;BME280;12423;48.768;8.850;2023-02-15T07:39:26;98168.72;;;-1.84;100.00
24306;BME280;12423;48.768;8.850;2023-02-15T07:41:27;98171.31;;;-1.81;100.00
24306;BME280;12423;48.768;8.850;2023-02-15T07:43:29;98175.59;;;-1.79;100.00
24306;BME280;12423;48.768;8.850;2023-02-15T07:45:30;98172.81;;;-1.70;100.00
24306;BME280;12423;48.768;8.850;2023-02-15T07:47:31;98166.56;;;-1.62;100.00
24306;BME280;12423;48.768;8.850;2023-02-15T07:49:32;98172.78;;;-1.67;100.00
24306;BME280;12423;48.768;8.850;2023-02-15T07:51:33;98171.91;;;-1.69;100.00
24306;BME280;12423;48.768;8.850;2023-02-15T07:53:35;98166.59;;;-1.64;100.00
24306;BME280;12423;48.768;8.850;2023-02-15T07:55:37;98173.53;;;-1.61;100.00
24306;BME280;12423;48.768;8.850;2023-02-15T07:57:42;98172.53;;;-1.56;100.00
24306;BME280;12423;48.768;8.850;2023-02-15T07:59:43;98172.34;;;-1.45;100.00
24306;BME280;12423;48.768;8.850;2023-02-15T08:01:44;98177.59;;;-1.45;100.00
24306;BME280;12423;48.768;8.850;2023-02-15T08:03:45;98166.91;;;-1.36;100.00
24306;BME280;12423;48.768;8.850;2023-02-15T08:05:46;98171.22;;;-1.32;100.00
24306;BME280;12423;48.768;8.850;2023-02-15T08:07:47;98172.59;;;-1.14;100.00
24306;BME280;12423;48.768;8.850;2023-02-15T08:09:48;98173.31;;;-1.07;100.00
24306;BME280;12423;48.768;8.850;2023-02-15T08:11:49;98174.84;;;-0.97;100.00
24306;BME280;12423;48.768;8.850;2023-02-15T08:14:21;98173.81;;;-0.89;100.00
24306;BME280;12423;48.768;8.850;2023-02-15T08:16:26;98165.88;;;-0.86;100.00
24306;BME280;12423;48.768;8.850;2023-02-15T08:18:27;98163.31;;;-0.89;100.00
24306;BME280;12423;48.768;8.850;2023-02-15T08:20:28;98169.19;;;-0.78;100.00
24306;BME280;12423;48.768;8.850;2023-02-15T08:22:29;98169.84;;;-0.68;100.00
24306;BME280;12423;48.768;8.850;2023-02-15T08:24:33;98166.47;;;-0.73;100.00
24306;BME280;12423;48.768;8.850;2023-02-15T08:26:35;98159.38;;;-0.70;100.00
24306;BME280;12423;48.768;8.850;2023-02-15T08:28:36;98159.28;;;-0.65;100.00
24306;BME280;12423;48.768;8.850;2023-02-15T08:30:37;98156.53;;;-0.61;100.00
24306;BME280;12423;48.768;8.850;2023-02-15T08:32:38;98157.22;;;-0.52;100.00
24306;BME280;12423;48.768;8.850;2023-02-15T08:34:41;98150.97;;;-0.47;100.00
24306;BME280;12423;48.768;8.850;2023-02-15T08:36:42;98152.72;;;-0.47;100.00
24306;BME280;12423;48.768;8.850;2023-02-15T08:38:46;98158.78;;;-0.45;100.00
24306;BME280;12423;48.768;8.850;2023-02-15T08:40:47;98148.94;;;-0.35;100.00
24306;BME280;12423;48.768;8.850;2023-02-15T08:42:48;98147.88;;;-0.28;100.00
24306;BME280;12423;48.768;8.850;2023-02-15T08:44:49;98158.88;;;-0.12;100.00
24306;BME280;12423;48.768;8.850;2023-02-15T08:46:51;98148.31;;;-0.11;100.00
24306;BME280;12423;48.768;8.850;2023-02-15T08:48:52;98155.84;;;0.03;100.00
24306;BME280;12423;48.768;8.850;2023-02-15T08:50:53;98151.47;;;0.04;100.00
24306;BME280;12423;48.768;8.850;2023-02-15T08:52:55;98153.75;;;0.16;100.00
24306;BME280;12423;48.768;8.850;2023-02-15T08:54:56;98152.75;;;0.22;100.00
24306;BME280;12423;48.768;8.850;2023-02-15T08:56:58;98145.53;;;0.30;100.00
24306;BME280;12423;48.768;8.850;2023-02-15T08:59:00;98154.06;;;0.38;100.00
24306;BME280;12423;48.768;8.850;2023-02-15T09:01:17;98152.25;;;0.40;100.00
24306;BME280;12423;48.768;8.850;2023-02-15T09:03:18;98145.94;;;0.46;100.00
24306;BME280;12423;48.768;8.850;2023-02-15T09:05:19;98144.88;;;0.53;100.00
24306;BME280;12423;48.768;8.850;2023-02-15T09:07:20;98147.09;;;0.67;100.00
24306;BME280;12423;48.768;8.850;2023-02-15T09:09:21;98140.72;;;0.76;100.00
24306;BME280;12423;48.768;8.850;2023-02-15T09:11:25;98141.84;;;0.97;100.00
24306;BME280;12423;48.768;8.850;2023-02-15T09:13:27;98142.34;;;1.09;100.00
24306;BME280;12423;48.768;8.850;2023-02-15T09:15:28;98139.63;;;1.13;100.00
24306;BME280;12423;48.768;8.850;2023-02-15T09:17:29;98137.69;;;1.19;100.00
24306;BME280;12423;48.768;8.850;2023-02-15T09:19:30;98129.47;;;1.28;100.00
24306;BME280;12423;48.768;8.850;2023-02-15T09:21:32;98131.91;;;1.35;100.00
24306;BME280;12423;48.768;8.850;2023-02-15T09:23:34;98132.63;;;1.40;100.00
24306;BME280;12423;48.768;8.850;2023-02-15T09:25:35;98136.03;;;1.43;100.00
24306;BME280;12423;48.768;8.850;2023-02-15T09:27:36;98119.00;;;1.55;100.00
24306;BME280;12423;48.768;8.850;2023-02-15T09:29:37;98121.41;;;1.61;100.00
24306;BME280;12423;48.768;8.850;2023-02-15T09:31:46;98114.09;;;1.70;100.00
24306;BME280;12423;48.768;8.850;2023-02-15T09:33:49;98120.69;;;1.83;100.00
24306;BME280;12423;48.768;8.850;2023-02-15T09:35:50;98117.84;;;1.89;100.00
24306;BME280;12423;48.768;8.850;2023-02-15T09:37:51;98114.81;;;2.01;100.00
24306;BME280;12423;48.768;8.850;2023-02-15T09:39:52;98110.50;;;2.24;100.00
24306;BME280;12423;48.768;8.850;2023-02-15T09:49:01;98100.09;;;2.45;100.00
24306;BME280;12423;48.768;8.850;2023-02-15T09:51:22;98102.34;;;2.55;100.00
24306;BME280;12423;48.768;8.850;2023-02-15T09:53:51;98099.31;;;2.66;100.00
24306;BME280;12423;48.768;8.850;2023-02-15T09:56:15;98102.16;;;2.84;100.00
24306;BME280;12423;48.768;8.850;2023-02-15T10:00:58;98097.84;;;3.05;100.00
24306;BME280;12423;48.768;8.850;2023-02-15T10:05:42;98102.59;;;3.19;100.00
24306;BME280;12423;48.768;8.850;2023-02-15T10:08:13;98095.16;;;3.50;100.00
24306;BME280;12423;48.768;8.850;2023-02-15T10:10:44;98090.16;;;3.65;100.00
24306;BME280;12423;48.768;8.850;2023-02-15T10:18:45;98085.97;;;3.81;100.00
24306;BME280;12423;48.768;8.850;2023-02-15T10:23:42;98092.84;;;4.27;100.00
24306;BME280;12423;48.768;8.850;2023-02-15T10:26:11;98094.00;;;4.40;100.00
24306;BME280;12423;48.768;8.850;2023-02-15T10:28:19;98096.91;;;4.54;100.00
24306;BME280;12423;48.768;8.850;2023-02-15T10:30:29;98088.69;;;4.60;100.00
24306;BME280;12423;48.768;8.850;2023-02-15T10:32:39;98088.06;;;4.74;100.00
24306;BME280;12423;48.768;8.850;2023-02-15T10:34:51;98087.84;;;4.79;100.00
24306;BME280;12423;48.768;8.850;2023-02-15T10:41:35;98074.47;;;5.20;100.00
24306;BME280;12423;48.768;8.850;2023-02-15T10:46:01;98072.09;;;5.50;100.00
24306;BME280;12423;48.768;8.850;2023-02-15T10:48:45;98063.00;;;5.73;100.00
24306;BME280;12423;48.768;8.850;2023-02-15T10:50:57;98062.56;;;5.83;100.00
24306;BME280;12423;48.768;8.850;2023-02-15T10:53:26;98059.59;;;6.06;100.00
24306;BME280;12423;48.768;8.850;2023-02-15T10:58:03;98067.50;;;6.08;100.00
24306;BME280;12423;48.768;8.850;2023-02-15T11:00:13;98059.31;;;6.13;100.00
24306;BME280;12423;48.768;8.850;2023-02-15T11:02:45;98060.59;;;6.39;100.00
24306;BME280;12423;48.768;8.850;2023-02-15T11:04:53;98060.63;;;6.55;100.00
24306;BME280;12423;48.768;8.850;2023-02-15T11:07:19;98058.25;;;6.66;100.00
24306;BME280;12423;48.768;8.850;2023-02-15T11:09:22;98058.19;;;6.83;100.00
24306;BME280;12423;48.768;8.850;2023-02-15T11:11:34;98063.44;;;6.85;100.00
24306;BME280;12423;48.768;8.850;2023-02-15T11:13:41;98048.16;;;6.89;100.00
24306;BME280;12423;48.768;8.850;2023-02-15T11:15:55;98044.91;;;6.99;100.00
24306;BME280;12423;48.768;8.850;2023-02-15T11:18:11;98042.69;;;7.08;100.00
24306;BME280;12423;48.768;8.850;2023-02-15T11:22:21;98044.53;;;7.53;100.00
24306;BME280;12423;48.768;8.850;2023-02-15T11:24:26;98041.41;;;8.22;100.00
24306;BME280;12423;48.768;8.850;2023-02-15T11:26:31;98040.38;;;8.96;100.00
24306;BME280;12423;48.768;8.850;2023-02-15T11:28:40;98040.31;;;9.25;100.00
24306;BME280;12423;48.768;8.850;2023-02-15T11:30:47;98034.06;;;10.19;95.14
24306;BME280;12423;48.768;8.850;2023-02-15T11:32:58;98022.72;;;11.54;88.64
24306;BME280;12423;48.768;8.850;2023-02-15T11:37:14;98017.16;;;15.89;65.65
24306;BME280;12423;48.768;8.850;2023-02-15T11:39:18;98017.31;;;17.11;59.36
24306;BME280;12423;48.768;8.850;2023-02-15T11:41:24;98023.72;;;18.99;52.45
24306;BME280;12423;48.768;8.850;2023-02-15T11:45:33;98011.75;;;19.09;48.13
24306;BME280;12423;48.768;8.850;2023-02-15T11:47:39;98015.47;;;19.08;45.05
24306;BME280;12423;48.768;8.850;2023-02-15T11:49:39;98004.00;;;19.74;44.22
24306;BME280;12423;48.768;8.850;2023-02-15T11:51:40;98006.03;;;20.54;41.88
24306;BME280;12423;48.768;8.850;2023-02-15T11:53:43;97991.28;;;21.60;41.84
24306;BME280;12423;48.768;8.850;2023-02-15T11:55:46;97999.16;;;21.78;40.44
24306;BME280;12423;48.768;8.850;2023-02-15T12:00:35;97998.53;;;22.90;38.94
24306;BME280;12423;48.768;8.850;2023-02-15T12:02:37;97997.66;;;22.75;36.51